sensor_id;sensor_type;location;lat;lon;timestamp;P1;durP1;ratioP1;P2;durP2;ratioP2
30046;SDS011;16878;52.542;13.426;2023-02-18T00:00:18;22.17;;;4.75;;
30046;SDS011;16878;52.542;13.426;2023-02-18T00:02:45;23.55;;;4.80;;
30046;SDS011;16878;52.542;13.426;2023-02-18T00:05:12;24.77;;;4.38;;
30046;SDS011;16878;52.542;13.426;2023-02-18T00:07:38;24.77;;;4.40;;
30046;SDS011;16878;52.542;13.426;2023-02-18T00:10:10;28.05;;;4.68;;
30046;SDS011;16878;52.542;13.426;2023-02-18T00:12:38;24.40;;;4.70;;
30046;SDS011;16878;52.542;13.426;2023-02-18T00:15:03;21.90;;;4.25;;
30046;SDS011;16878;52.542;13.426;2023-02-18T00:17:29;28.15;;;3.80;;
30046;SDS011;16878;52.542;13.426;2023-02-18T00:19:55;24.30;;;4.55;;
30046;SDS011;16878;52.542;13.426;2023-02-18T00:22:24;24.45;;;5.18;;
30046;SDS011;16878;52.542;13.426;2023-02-18T00:24:50;33.50;;;5.45;;
30046;SDS011;16878;52.542;13.426;2023-02-18T00:27:16;26.92;;;5.68;;
30046;SDS011;16878;52.542;13.426;2023-02-18T00:29:42;32.47;;;5.13;;
30046;SDS011;16878;52.542;13.426;2023-02-18T00:32:07;20.05;;;4.72;;
30046;SDS011;16878;52.542;13.426;2023-02-18T00:34:33;27.45;;;4.47;;
30046;SDS011;16878;52.542;13.426;2023-02-18T00:36:59;26.38;;;4.13;;
30046;SDS011;16878;52.542;13.426;2023-02-18T00:39:24;20.02;;;4.05;;
30046;SDS011;16878;52.542;13.426;2023-02-18T00:41:50;25.17;;;4.57;;
30046;SDS011;16878;52.542;13.426;2023-02-18T00:44:16;20.80;;;4.35;;
30046;SDS011;16878;52.542;13.426;2023-02-18T00:46:42;29.23;;;4.78;;
30046;SDS011;16878;52.542;13.426;2023-02-18T00:49:08;25.38;;;4.75;;
30046;SDS011;16878;52.542;13.426;2023-02-18T00:51:35;29.13;;;5.35;;
30046;SDS011;16878;52.542;13.426;2023-02-18T00:54:00;21.98;;;4.03;;
30046;SDS011;16878;52.542;13.426;2023-02-18T00:56:26;20.02;;;4.85;;
30046;SDS011;16878;52.542;13.426;2023-02-18T00:58:52;24.08;;;4.45;;
30046;SDS011;16878;52.542;13.426;2023-02-18T01:01:18;20.05;;;4.57;;
30046;SDS011;16878;52.542;13.426;2023-02-18T01:03:44;25.95;;;4.95;;
30046;SDS011;16878;52.542;13.426;2023-02-18T01:06:10;30.83;;;4.80;;
30046;SDS011;16878;52.542;13.426;2023-02-18T01:08:39;23.55;;;4.25;;
30046;SDS011;16878;52.542;13.426;2023-02-18T01:11:05;21.08;;;4.28;;
30046;SDS011;16878;52.542;13.426;2023-02-18T01:13:32;24.73;;;5.18;;
30046;SDS011;16878;52.542;13.426;2023-02-18T01:15:58;27.20;;;4.93;;
30046;SDS011;16878;52.542;13.426;2023-02-18T01:18:25;19.42;;;4.55;;
30046;SDS011;16878;52.542;13.426;2023-02-18T01:20:51;33.00;;;5.30;;
30046;SDS011;16878;52.542;13.426;2023-02-18T01:23:17;17.52;;;4.57;;
30046;SDS011;16878;52.542;13.426;2023-02-18T01:25:43;23.55;;;4.90;;
30046;SDS011;16878;52.542;13.426;2023-02-18T01:28:10;23.50;;;5.00;;
30046;SDS011;16878;52.542;13.426;2023-02-18T01:30:37;19.75;;;3.85;;
30046;SDS011;16878;52.542;13.426;2023-02-18T01:33:04;29.48;;;4.38;;
30046;SDS011;16878;52.542;13.426;2023-02-18T01:35:30;20.27;;;4.10;;
30046;SDS011;16878;52.542;13.426;2023-02-18T01:37:55;29.83;;;5.03;;
30046;SDS011;16878;52.542;13.426;2023-02-18T01:40:22;19.55;;;4.68;;
30046;SDS011;16878;52.542;13.426;2023-02-18T01:42:50;26.45;;;4.85;;
30046;SDS011;16878;52.542;13.426;2023-02-18T01:48:04;22.65;;;4.07;;
30046;SDS011;16878;52.542;13.426;2023-02-18T01:50:35;20.52;;;4.25;;
30046;SDS011;16878;52.542;13.426;2023-02-18T01:53:04;29.58;;;4.78;;
30046;SDS011;16878;52.542;13.426;2023-02-18T01:55:32;27.95;;;4.72;;
30046;SDS011;16878;52.542;13.426;2023-02-18T01:57:59;26.92;;;4.90;;
30046;SDS011;16878;52.542;13.426;2023-02-18T02:00:26;23.13;;;4.57;;
30046;SDS011;16878;52.542;13.426;2023-02-18T02:02:52;25.75;;;4.45;;
30046;SDS011;16878;52.542;13.426;2023-02-18T02:05:19;28.90;;;4.13;;
30046;SDS011;16878;52.542;13.426;2023-02-18T02:07:46;29.92;;;4.97;;
30046;SDS011;16878;52.542;13.426;2023-02-18T02:10:17;20.35;;;4.95;;
30046;SDS011;16878;52.542;13.426;2023-02-18T02:15:31;27.35;;;5.53;;
30046;SDS011;16878;52.542;13.426;2023-02-18T02:21:45;28.17;;;4.90;;
30046;SDS011;16878;52.542;13.426;2023-02-18T02:32:36;19.98;;;3.83;;
30046;SDS011;16878;52.542;13.426;2023-02-18T02:35:23;24.55;;;4.82;;
30046;SDS011;16878;52.542;13.426;2023-02-18T02:40:45;25.48;;;4.85;;
30046;SDS011;16878;52.542;13.426;2023-02-18T02:48:44;23.27;;;4.85;;
30046;SDS011;16878;52.542;13.426;2023-02-18T02:54:19;21.23;;;3.58;;
30046;SDS011;16878;52.542;13.426;2023-02-18T02:56:47;23.50;;;4.03;;
30046;SDS011;16878;52.542;13.426;2023-02-18T02:59:20;26.75;;;4.28;;
30046;SDS011;16878;52.542;13.426;2023-02-18T03:02:35;23.58;;;4.70;;
30046;SDS011;16878;52.542;13.426;2023-02-18T03:15:23;21.35;;;4.53;;
30046;SDS011;16878;52.542;13.426;2023-02-18T03:20:54;17.23;;;3.58;;
30046;SDS011;16878;52.542;13.426;2023-02-18T03:23:25;23.45;;;3.17;;
30046;SDS011;16878;52.542;13.426;2023-02-18T03:25:57;18.38;;;3.33;;
30046;SDS011;16878;52.542;13.426;2023-02-18T03:28:23;20.23;;;4.60;;
30046;SDS011;16878;52.542;13.426;2023-02-18T03:30:57;22.55;;;4.18;;
30046;SDS011;16878;52.542;13.426;2023-02-18T03:33:27;19.90;;;3.65;;
30046;SDS011;16878;52.542;13.426;2023-02-18T03:36:01;25.58;;;4.90;;
30046;SDS011;16878;52.542;13.426;2023-02-18T03:41:03;24.38;;;4.68;;
30046;SDS011;16878;52.542;13.426;2023-02-18T03:43:29;16.77;;;3.28;;
30046;SDS011;16878;52.542;13.426;2023-02-18T03:45:55;26.33;;;4.57;;
30046;SDS011;16878;52.542;13.426;2023-02-18T03:48:22;19.10;;;4.25;;
30046;SDS011;16878;52.542;13.426;2023-02-18T03:50:48;17.00;;;3.33;;
30046;SDS011;16878;52.542;13.426;2023-02-18T03:53:13;21.02;;;3.92;;
30046;SDS011;16878;52.542;13.426;2023-02-18T03:55:39;32.00;;;4.55;;
30046;SDS011;16878;52.542;13.426;2023-02-18T03:58:05;19.15;;;3.45;;
30046;SDS011;16878;52.542;13.426;2023-02-18T04:00:30;17.08;;;3.75;;
30046;SDS011;16878;52.542;13.426;2023-02-18T04:02:56;22.00;;;3.60;;
30046;SDS011;16878;52.542;13.426;2023-02-18T04:05:21;21.85;;;3.65;;
30046;SDS011;16878;52.542;13.426;2023-02-18T04:07:47;22.02;;;4.25;;
30046;SDS011;16878;52.542;13.426;2023-02-18T04:10:13;33.10;;;4.20;;
30046;SDS011;16878;52.542;13.426;2023-02-18T04:12:38;19.58;;;3.35;;
30046;SDS011;16878;52.542;13.426;2023-02-18T04:15:04;30.05;;;4.03;;
30046;SDS011;16878;52.542;13.426;2023-02-18T04:17:31;20.33;;;3.30;;
30046;SDS011;16878;52.542;13.426;2023-02-18T04:19:57;20.33;;;3.55;;
30046;SDS011;16878;52.542;13.426;2023-02-18T04:22:23;19.15;;;4.13;;
30046;SDS011;16878;52.542;13.426;2023-02-18T04:24:48;26.73;;;4.07;;
30046;SDS011;16878;52.542;13.426;2023-02-18T04:27:15;18.15;;;3.00;;
30046;SDS011;16878;52.542;13.426;2023-02-18T04:29:40;15.82;;;2.83;;
30046;SDS011;16878;52.542;13.426;2023-02-18T04:32:06;18.42;;;3.53;;
30046;SDS011;16878;52.542;13.426;2023-02-18T04:34:31;17.83;;;3.83;;
30046;SDS011;16878;52.542;13.426;2023-02-18T04:36:57;13.45;;;3.38;;
30046;SDS011;16878;52.542;13.426;2023-02-18T04:39:23;18.45;;;3.60;;
30046;SDS011;16878;52.542;13.426;2023-02-18T04:41:49;16.10;;;2.97;;
30046;SDS011;16878;52.542;13.426;2023-02-18T04:44:15;15.77;;;2.67;;
30046;SDS011;16878;52.542;13.426;2023-02-18T04:46:41;21.73;;;3.30;;
30046;SDS011;16878;52.542;13.426;2023-02-18T04:49:06;19.75;;;3.70;;
30046;SDS011;16878;52.542;13.426;2023-02-18T04:51:32;17.58;;;3.25;;
30046;SDS011;16878;52.542;13.426;2023-02-18T04:53:58;20.58;;;3.00;;
30046;SDS011;16878;52.542;13.426;2023-02-18T04:56:23;16.20;;;2.95;;
30046;SDS011;16878;52.542;13.426;2023-02-18T04:58:49;17.35;;;3.95;;
30046;SDS011;16878;52.542;13.426;2023-02-18T05:01:15;25.23;;;3.17;;
30046;SDS011;16878;52.542;13.426;2023-02-18T05:03:40;21.50;;;4.07;;
30046;SDS011;16878;52.542;13.426;2023-02-18T05:06:06;19.58;;;3.30;;
30046;SDS011;16878;52.542;13.426;2023-02-18T05:08:31;21.27;;;3.38;;
30046;SDS011;16878;52.542;13.426;2023-02-18T05:10:57;23.38;;;3.33;;
30046;SDS011;16878;52.542;13.426;2023-02-18T05:13:23;19.92;;;3.30;;
30046;SDS011;16878;52.542;13.426;2023-02-18T05:15:48;22.90;;;3.40;;
30046;SDS011;16878;52.542;13.426;2023-02-18T05:18:14;19.55;;;3.45;;
30046;SDS011;16878;52.542;13.426;2023-02-18T05:20:40;14.35;;;3.85;;
30046;SDS011;16878;52.542;13.426;2023-02-18T05:23:06;26.33;;;4.45;;
30046;SDS011;16878;52.542;13.426;2023-02-18T05:25:32;21.83;;;2.95;;
30046;SDS011;16878;52.542;13.426;2023-02-18T05:27:57;17.85;;;3.97;;
30046;SDS011;16878;52.542;13.426;2023-02-18T05:30:23;22.67;;;3.55;;
30046;SDS011;16878;52.542;13.426;2023-02-18T05:32:49;21.80;;;3.25;;
30046;SDS011;16878;52.542;13.426;2023-02-18T05:35:14;19.42;;;3.72;;
30046;SDS011;16878;52.542;13.426;2023-02-18T05:37:40;21.83;;;3.03;;
30046;SDS011;16878;52.542;13.426;2023-02-18T05:40:06;16.08;;;3.42;;
30046;SDS011;16878;52.542;13.426;2023-02-18T05:42:32;33.33;;;4.65;;
30046;SDS011;16878;52.542;13.426;2023-02-18T05:44:57;13.38;;;2.78;;
30046;SDS011;16878;52.542;13.426;2023-02-18T05:47:23;14.05;;;3.15;;
30046;SDS011;16878;52.542;13.426;2023-02-18T05:49:49;14.65;;;2.97;;
30046;SDS011;16878;52.542;13.426;2023-02-18T05:52:15;20.70;;;3.60;;
30046;SDS011;16878;52.542;13.426;2023-02-18T05:54:41;15.27;;;3.10;;
30046;SDS011;16878;52.542;13.426;2023-02-18T05:57:09;20.33;;;3.13;;
30046;SDS011;16878;52.542;13.426;2023-02-18T05:59:35;11.85;;;2.55;;
30046;SDS011;16878;52.542;13.426;2023-02-18T06:02:00;15.45;;;2.85;;
30046;SDS011;16878;52.542;13.426;2023-02-18T06:04:26;13.38;;;2.60;;
30046;SDS011;16878;52.542;13.426;2023-02-18T06:06:52;15.85;;;3.25;;
30046;SDS011;16878;52.542;13.426;2023-02-18T06:09:18;12.25;;;3.00;;
30046;SDS011;16878;52.542;13.426;2023-02-18T06:11:44;14.38;;;2.97;;
30046;SDS011;16878;52.542;13.426;2023-02-18T06:14:10;19.58;;;3.30;;
30046;SDS011;16878;52.542;13.426;2023-02-18T06:16:36;8.15;;;2.33;;
30046;SDS011;16878;52.542;13.426;2023-02-18T06:19:02;11.80;;;2.25;;
30046;SDS011;16878;52.542;13.426;2023-02-18T06:21:27;9.65;;;1.95;;
30046;SDS011;16878;52.542;13.426;2023-02-18T06:23:56;18.60;;;3.23;;
30046;SDS011;16878;52.542;13.426;2023-02-18T06:26:22;19.73;;;2.80;;
30046;SDS011;16878;52.542;13.426;2023-02-18T06:28:47;13.25;;;2.60;;
30046;SDS011;16878;52.542;13.426;2023-02-18T06:31:13;16.92;;;2.35;;
30046;SDS011;16878;52.542;13.426;2023-02-18T06:33:39;13.10;;;2.13;;
30046;SDS011;16878;52.542;13.426;2023-02-18T06:36:05;12.55;;;2.22;;
30046;SDS011;16878;52.542;13.426;2023-02-18T06:38:33;15.50;;;2.00;;
30046;SDS011;16878;52.542;13.426;2023-02-18T06:41:00;13.18;;;2.15;;
30046;SDS011;16878;52.542;13.426;2023-02-18T06:43:26;12.20;;;2.83;;
30046;SDS011;16878;52.542;13.426;2023-02-18T06:45:51;12.25;;;3.22;;
30046;SDS011;16878;52.542;13.426;2023-02-18T06:48:17;17.40;;;2.38;;
30046;SDS011;16878;52.542;13.426;2023-02-18T06:50:46;8.38;;;2.20;;
30046;SDS011;16878;52.542;13.426;2023-02-18T06:53:12;18.33;;;3.13;;
30046;SDS011;16878;52.542;13.426;2023-02-18T06:55:38;8.20;;;2.40;;
30046;SDS011;16878;52.542;13.426;2023-02-18T06:58:04;10.88;;;2.20;;
30046;SDS011;16878;52.542;13.426;2023-02-18T07:00:30;10.18;;;3.05;;
30046;SDS011;16878;52.542;13.426;2023-02-18T07:02:56;9.50;;;2.50;;
30046;SDS011;16878;52.542;13.426;2023-02-18T07:05:21;12.02;;;2.30;;
30046;SDS011;16878;52.542;13.426;2023-02-18T07:07:47;13.63;;;2.60;;
30046;SDS011;16878;52.542;13.426;2023-02-18T07:10:13;8.63;;;2.38;;
30046;SDS011;16878;52.542;13.426;2023-02-18T07:12:39;10.85;;;2.10;;
30046;SDS011;16878;52.542;13.426;2023-02-18T07:15:05;12.32;;;3.08;;
30046;SDS011;16878;52.542;13.426;2023-02-18T07:17:31;9.93;;;2.53;;
30046;SDS011;16878;52.542;13.426;2023-02-18T07:19:56;12.32;;;2.55;;
30046;SDS011;16878;52.542;13.426;2023-02-18T07:22:24;12.73;;;2.13;;
30046;SDS011;16878;52.542;13.426;2023-02-18T07:24:51;12.48;;;2.65;;
30046;SDS011;16878;52.542;13.426;2023-02-18T07:27:17;14.27;;;2.70;;
30046;SDS011;16878;52.542;13.426;2023-02-18T07:29:43;9.82;;;2.30;;
30046;SDS011;16878;52.542;13.426;2023-02-18T07:32:12;12.18;;;2.17;;
30046;SDS011;16878;52.542;13.426;2023-02-18T07:34:39;11.77;;;2.45;;
30046;SDS011;16878;52.542;13.426;2023-02-18T07:37:05;12.63;;;2.47;;
30046;SDS011;16878;52.542;13.426;2023-02-18T07:39:38;10.80;;;2.35;;
30046;SDS011;16878;52.542;13.426;2023-02-18T07:42:05;9.98;;;2.15;;
30046;SDS011;16878;52.542;13.426;2023-02-18T07:44:30;13.05;;;3.00;;
30046;SDS011;16878;52.542;13.426;2023-02-18T07:46:56;11.55;;;2.03;;
30046;SDS011;16878;52.542;13.426;2023-02-18T07:49:22;14.05;;;2.90;;
30046;SDS011;16878;52.542;13.426;2023-02-18T07:51:48;12.57;;;2.53;;
30046;SDS011;16878;52.542;13.426;2023-02-18T07:54:14;17.90;;;3.00;;
30046;SDS011;16878;52.542;13.426;2023-02-18T07:56:42;15.18;;;2.85;;
30046;SDS011;16878;52.542;13.426;2023-02-18T07:59:08;12.13;;;2.90;;
30046;SDS011;16878;52.542;13.426;2023-02-18T08:01:34;14.73;;;3.40;;
30046;SDS011;16878;52.542;13.426;2023-02-18T08:03:59;12.05;;;3.38;;
30046;SDS011;16878;52.542;13.426;2023-02-18T08:06:27;13.27;;;3.10;;
30046;SDS011;16878;52.542;13.426;2023-02-18T08:09:01;7.57;;;1.85;;
30046;SDS011;16878;52.542;13.426;2023-02-18T08:11:29;9.18;;;2.17;;
30046;SDS011;16878;52.542;13.426;2023-02-18T08:13:58;17.23;;;3.22;;
30046;SDS011;16878;52.542;13.426;2023-02-18T08:16:24;8.32;;;2.13;;
30046;SDS011;16878;52.542;13.426;2023-02-18T08:18:53;13.02;;;2.33;;
30046;SDS011;16878;52.542;13.426;2023-02-18T08:21:21;11.98;;;2.83;;
30046;SDS011;16878;52.542;13.426;2023-02-18T08:23:51;7.72;;;2.10;;
30046;SDS011;16878;52.542;13.426;2023-02-18T08:26:18;16.50;;;4.70;;
30046;SDS011;16878;52.542;13.426;2023-02-18T08:28:48;15.77;;;2.70;;
30046;SDS011;16878;52.542;13.426;2023-02-18T08:31:18;12.57;;;2.35;;
30046;SDS011;16878;52.542;13.426;2023-02-18T08:33:54;10.57;;;3.28;;
30046;SDS011;16878;52.542;13.426;2023-02-18T08:36:25;16.25;;;4.45;;
30046;SDS011;16878;52.542;13.426;2023-02-18T08:38:52;18.10;;;8.38;;
30046;SDS011;16878;52.542;13.426;2023-02-18T08:41:18;22.98;;;9.30;;
30046;SDS011;16878;52.542;13.426;2023-02-18T08:43:48;13.63;;;3.40;;
30046;SDS011;16878;52.542;13.426;2023-02-18T08:46:14;12.82;;;3.30;;
30046;SDS011;16878;52.542;13.426;2023-02-18T08:48:41;11.88;;;3.13;;
30046;SDS011;16878;52.542;13.426;2023-02-18T08:51:11;12.07;;;3.65;;
30046;SDS011;16878;52.542;13.426;2023-02-18T08:53:41;15.85;;;3.40;;
30046;SDS011;16878;52.542;13.426;2023-02-18T08:56:07;13.90;;;3.60;;
30046;SDS011;16878;52.542;13.426;2023-02-18T08:58:35;11.52;;;3.00;;
30046;SDS011;16878;52.542;13.426;2023-02-18T09:01:02;20.45;;;6.47;;
30046;SDS011;16878;52.542;13.426;2023-02-18T09:03:32;16.42;;;4.13;;
30046;SDS011;16878;52.542;13.426;2023-02-18T09:05:58;19.67;;;4.43;;
30046;SDS011;16878;52.542;13.426;2023-02-18T09:08:25;14.70;;;3.00;;
30046;SDS011;16878;52.542;13.426;2023-02-18T09:10:54;13.95;;;3.80;;
30046;SDS011;16878;52.542;13.426;2023-02-18T09:13:24;15.57;;;3.28;;
30046;SDS011;16878;52.542;13.426;2023-02-18T09:16:00;13.50;;;5.85;;
30046;SDS011;16878;52.542;13.426;2023-02-18T09:18:28;16.33;;;5.35;;
30046;SDS011;16878;52.542;13.426;2023-02-18T09:20:56;20.67;;;7.97;;
30046;SDS011;16878;52.542;13.426;2023-02-18T09:23:24;22.35;;;10.73;;
30046;SDS011;16878;52.542;13.426;2023-02-18T09:25:50;25.92;;;10.95;;
30046;SDS011;16878;52.542;13.426;2023-02-18T09:28:16;30.52;;;14.57;;
30046;SDS011;16878;52.542;13.426;2023-02-18T09:30:42;19.40;;;11.93;;
30046;SDS011;16878;52.542;13.426;2023-02-18T09:33:08;18.92;;;9.80;;
30046;SDS011;16878;52.542;13.426;2023-02-18T09:35:37;18.52;;;6.75;;
30046;SDS011;16878;52.542;13.426;2023-02-18T09:38:03;13.45;;;5.75;;
30046;SDS011;16878;52.542;13.426;2023-02-18T09:40:30;17.90;;;4.82;;
30046;SDS011;16878;52.542;13.426;2023-02-18T09:42:59;18.20;;;4.43;;
30046;SDS011;16878;52.542;13.426;2023-02-18T09:45:26;20.98;;;5.68;;
30046;SDS011;16878;52.542;13.426;2023-02-18T09:47:52;13.55;;;4.43;;
30046;SDS011;16878;52.542;13.426;2023-02-18T09:50:25;18.52;;;3.45;;
30046;SDS011;16878;52.542;13.426;2023-02-18T09:52:57;15.32;;;3.72;;
30046;SDS011;16878;52.542;13.426;2023-02-18T09:57:56;17.65;;;3.47;;
30046;SDS011;16878;52.542;13.426;2023-02-18T10:00:28;18.33;;;3.78;;
30046;SDS011;16878;52.542;13.426;2023-02-18T10:03:01;15.00;;;3.92;;
30046;SDS011;16878;52.542;13.426;2023-02-18T10:05:32;16.48;;;4.45;;
30046;SDS011;16878;52.542;13.426;2023-02-18T10:08:21;19.58;;;4.47;;
30046;SDS011;16878;52.542;13.426;2023-02-18T10:10:48;16.90;;;4.55;;
30046;SDS011;16878;52.542;13.426;2023-02-18T10:13:15;17.95;;;4.00;;
30046;SDS011;16878;52.542;13.426;2023-02-18T10:15:44;19.23;;;5.78;;
30046;SDS011;16878;52.542;13.426;2023-02-18T10:21:09;13.85;;;4.18;;
30046;SDS011;16878;52.542;13.426;2023-02-18T10:23:39;18.00;;;4.28;;
30046;SDS011;16878;52.542;13.426;2023-02-18T10:26:11;19.80;;;4.82;;
30046;SDS011;16878;52.542;13.426;2023-02-18T10:28:42;19.20;;;5.55;;
30046;SDS011;16878;52.542;13.426;2023-02-18T10:31:09;23.40;;;5.35;;
30046;SDS011;16878;52.542;13.426;2023-02-18T10:33:41;17.33;;;5.35;;
30046;SDS011;16878;52.542;13.426;2023-02-18T10:36:24;18.27;;;5.03;;
30046;SDS011;16878;52.542;13.426;2023-02-18T10:47:49;18.50;;;5.25;;
30046;SDS011;16878;52.542;13.426;2023-02-18T10:50:42;17.45;;;4.25;;
30046;SDS011;16878;52.542;13.426;2023-02-18T10:55:57;14.98;;;4.07;;
30046;SDS011;16878;52.542;13.426;2023-02-18T10:58:41;12.45;;;4.05;;
30046;SDS011;16878;52.542;13.426;2023-02-18T11:01:14;15.43;;;4.03;;
30046;SDS011;16878;52.542;13.426;2023-02-18T11:03:44;13.45;;;3.67;;
30046;SDS011;16878;52.542;13.426;2023-02-18T11:06:24;15.75;;;3.90;;
30046;SDS011;16878;52.542;13.426;2023-02-18T11:09:03;15.23;;;4.68;;
30046;SDS011;16878;52.542;13.426;2023-02-18T11:11:37;8.80;;;3.45;;
30046;SDS011;16878;52.542;13.426;2023-02-18T11:14:06;17.90;;;4.47;;
30046;SDS011;16878;52.542;13.426;2023-02-18T11:19:03;13.02;;;3.92;;
30046;SDS011;16878;52.542;13.426;2023-02-18T11:21:30;10.88;;;4.20;;
30046;SDS011;16878;52.542;13.426;2023-02-18T11:24:14;18.05;;;4.07;;
30046;SDS011;16878;52.542;13.426;2023-02-18T11:26:41;10.77;;;3.55;;
30046;SDS011;16878;52.542;13.426;2023-02-18T11:31:45;9.77;;;3.67;;
30046;SDS011;16878;52.542;13.426;2023-02-18T11:34:19;11.35;;;3.60;;
30046;SDS011;16878;52.542;13.426;2023-02-18T11:36:52;9.57;;;3.60;;
30046;SDS011;16878;52.542;13.426;2023-02-18T11:41:58;9.43;;;3.35;;
30046;SDS011;16878;52.542;13.426;2023-02-18T11:44:37;11.90;;;3.92;;
30046;SDS011;16878;52.542;13.426;2023-02-18T11:49:39;9.02;;;3.90;;
30046;SDS011;16878;52.542;13.426;2023-02-18T11:52:18;9.80;;;3.45;;
30046;SDS011;16878;52.542;13.426;2023-02-18T11:55:04;9.32;;;3.70;;
30046;SDS011;16878;52.542;13.426;2023-02-18T11:57:54;6.50;;;3.25;;
30046;SDS011;16878;52.542;13.426;2023-02-18T12:00:48;7.30;;;3.13;;
30046;SDS011;16878;52.542;13.426;2023-02-18T12:06:22;7.90;;;3.95;;
30046;SDS011;16878;52.542;13.426;2023-02-18T12:11:47;6.43;;;3.65;;
30046;SDS011;16878;52.542;13.426;2023-02-18T12:14:19;9.55;;;3.83;;
30046;SDS011;16878;52.542;13.426;2023-02-18T12:39:15;10.35;;;6.45;;
30046;SDS011;16878;52.542;13.426;2023-02-18T12:44:33;19.60;;;10.52;;
30046;SDS011;16878;52.542;13.426;2023-02-18T12:57:55;11.30;;;8.10;;
30046;SDS011;16878;52.542;13.426;2023-02-18T13:14:17;11.02;;;6.65;;
30046;SDS011;16878;52.542;13.426;2023-02-18T13:16:48;8.85;;;6.40;;
30046;SDS011;16878;52.542;13.426;2023-02-18T13:21:43;10.98;;;6.95;;
30046;SDS011;16878;52.542;13.426;2023-02-18T13:24:33;12.02;;;7.95;;
30046;SDS011;16878;52.542;13.426;2023-02-18T13:27:08;11.18;;;5.95;;
30046;SDS011;16878;52.542;13.426;2023-02-18T13:32:36;11.18;;;7.05;;
30046;SDS011;16878;52.542;13.426;2023-02-18T13:42:50;12.90;;;6.97;;
30046;SDS011;16878;52.542;13.426;2023-02-18T13:45:27;11.02;;;6.43;;
30046;SDS011;16878;52.542;13.426;2023-02-18T13:47:55;7.85;;;5.90;;
30046;SDS011;16878;52.542;13.426;2023-02-18T13:50:24;8.50;;;6.20;;
30046;SDS011;16878;52.542;13.426;2023-02-18T13:53:10;10.68;;;4.95;;
30046;SDS011;16878;52.542;13.426;2023-02-18T13:58:43;5.18;;;3.90;;
30046;SDS011;16878;52.542;13.426;2023-02-18T14:01:22;4.82;;;3.67;;
30046;SDS011;16878;52.542;13.426;2023-02-18T14:04:00;9.15;;;3.30;;
30046;SDS011;16878;52.542;13.426;2023-02-18T14:09:02;6.47;;;4.20;;
30046;SDS011;16878;52.542;13.426;2023-02-18T14:11:55;8.05;;;5.15;;
30046;SDS011;16878;52.542;13.426;2023-02-18T14:14:38;6.90;;;4.07;;
30046;SDS011;16878;52.542;13.426;2023-02-18T14:19:42;5.00;;;3.50;;
30046;SDS011;16878;52.542;13.426;2023-02-18T14:27:37;7.47;;;3.55;;
30046;SDS011;16878;52.542;13.426;2023-02-18T14:30:15;6.95;;;3.28;;
30046;SDS011;16878;52.542;13.426;2023-02-18T14:32:42;5.45;;;3.55;;
30046;SDS011;16878;52.542;13.426;2023-02-18T14:46:24;5.90;;;3.67;;
30046;SDS011;16878;52.542;13.426;2023-02-18T14:49:05;3.60;;;3.22;;
30046;SDS011;16878;52.542;13.426;2023-02-18T14:51:37;6.53;;;3.00;;
30046;SDS011;16878;52.542;13.426;2023-02-18T14:54:10;4.55;;;2.97;;
30046;SDS011;16878;52.542;13.426;2023-02-18T14:56:44;7.82;;;4.82;;
30046;SDS011;16878;52.542;13.426;2023-02-18T14:59:24;16.10;;;8.13;;
30046;SDS011;16878;52.542;13.426;2023-02-18T15:01:53;22.95;;;11.93;;
30046;SDS011;16878;52.542;13.426;2023-02-18T15:04:20;17.30;;;8.80;;
30046;SDS011;16878;52.542;13.426;2023-02-18T15:06:53;18.40;;;9.07;;
30046;SDS011;16878;52.542;13.426;2023-02-18T15:09:27;15.98;;;8.27;;
30046;SDS011;16878;52.542;13.426;2023-02-18T15:12:01;7.47;;;4.90;;
30046;SDS011;16878;52.542;13.426;2023-02-18T15:14:31;7.40;;;4.55;;
30046;SDS011;16878;52.542;13.426;2023-02-18T15:16:58;4.72;;;3.78;;
30046;SDS011;16878;52.542;13.426;2023-02-18T15:19:26;7.70;;;3.90;;
30046;SDS011;16878;52.542;13.426;2023-02-18T15:21:59;6.72;;;3.55;;
30046;SDS011;16878;52.542;13.426;2023-02-18T15:24:35;13.27;;;6.25;;
30046;SDS011;16878;52.542;13.426;2023-02-18T15:27:37;5.78;;;3.47;;
30046;SDS011;16878;52.542;13.426;2023-02-18T15:32:58;5.50;;;3.17;;
30046;SDS011;16878;52.542;13.426;2023-02-18T15:35:26;9.80;;;4.45;;
30046;SDS011;16878;52.542;13.426;2023-02-18T15:37:56;13.63;;;5.20;;
30046;SDS011;16878;52.542;13.426;2023-02-18T15:43:02;9.75;;;3.72;;
30046;SDS011;16878;52.542;13.426;2023-02-18T15:47:59;9.55;;;3.97;;
30046;SDS011;16878;52.542;13.426;2023-02-18T15:50:30;17.65;;;5.93;;
30046;SDS011;16878;52.542;13.426;2023-02-18T15:52:59;13.50;;;4.68;;
30046;SDS011;16878;52.542;13.426;2023-02-18T15:55:34;36.25;;;9.02;;
30046;SDS011;16878;52.542;13.426;2023-02-18T15:58:13;13.60;;;5.50;;
30046;SDS011;16878;52.542;13.426;2023-02-18T16:03:34;26.38;;;8.57;;
30046;SDS011;16878;52.542;13.426;2023-02-18T16:06:15;7.88;;;2.28;;
30046;SDS011;16878;52.542;13.426;2023-02-18T16:09:02;15.80;;;4.88;;
30046;SDS011;16878;52.542;13.426;2023-02-18T16:11:39;14.32;;;4.40;;
30046;SDS011;16878;52.542;13.426;2023-02-18T16:17:08;16.88;;;5.75;;
30046;SDS011;16878;52.542;13.426;2023-02-18T16:19:50;22.55;;;6.13;;
30046;SDS011;16878;52.542;13.426;2023-02-18T16:27:33;15.80;;;4.85;;
30046;SDS011;16878;52.542;13.426;2023-02-18T16:30:06;10.32;;;3.83;;
30046;SDS011;16878;52.542;13.426;2023-02-18T16:32:40;17.90;;;6.07;;
30046;SDS011;16878;52.542;13.426;2023-02-18T16:35:07;6.50;;;2.85;;
30046;SDS011;16878;52.542;13.426;2023-02-18T16:37:34;3.88;;;2.17;;
30046;SDS011;16878;52.542;13.426;2023-02-18T16:40:03;4.20;;;2.40;;
30046;SDS011;16878;52.542;13.426;2023-02-18T16:42:36;9.38;;;3.08;;
30046;SDS011;16878;52.542;13.426;2023-02-18T16:45:05;3.78;;;2.53;;
30046;SDS011;16878;52.542;13.426;2023-02-18T16:47:36;4.47;;;2.50;;
30046;SDS011;16878;52.542;13.426;2023-02-18T16:50:04;3.10;;;2.50;;
30046;SDS011;16878;52.542;13.426;2023-02-18T16:52:50;5.40;;;3.25;;
30046;SDS011;16878;52.542;13.426;2023-02-18T16:55:20;3.85;;;2.42;;
30046;SDS011;16878;52.542;13.426;2023-02-18T16:57:49;3.13;;;2.22;;
30046;SDS011;16878;52.542;13.426;2023-02-18T17:00:15;3.88;;;2.50;;
30046;SDS011;16878;52.542;13.426;2023-02-18T17:02:42;3.25;;;2.05;;
30046;SDS011;16878;52.542;13.426;2023-02-18T17:05:17;2.95;;;2.20;;
30046;SDS011;16878;52.542;13.426;2023-02-18T17:07:51;5.65;;;2.15;;
30046;SDS011;16878;52.542;13.426;2023-02-18T17:10:17;3.17;;;2.30;;
30046;SDS011;16878;52.542;13.426;2023-02-18T17:12:43;3.15;;;2.38;;
30046;SDS011;16878;52.542;13.426;2023-02-18T17:15:12;3.05;;;2.05;;
30046;SDS011;16878;52.542;13.426;2023-02-18T17:17:40;2.58;;;2.00;;
30046;SDS011;16878;52.542;13.426;2023-02-18T17:20:06;3.10;;;2.53;;
30046;SDS011;16878;52.542;13.426;2023-02-18T17:22:32;3.17;;;2.28;;
30046;SDS011;16878;52.542;13.426;2023-02-18T17:24:58;3.05;;;2.28;;
30046;SDS011;16878;52.542;13.426;2023-02-18T17:27:24;2.95;;;2.33;;
30046;SDS011;16878;52.542;13.426;2023-02-18T17:30:02;2.65;;;2.00;;
30046;SDS011;16878;52.542;13.426;2023-02-18T17:32:28;2.42;;;1.92;;
30046;SDS011;16878;52.542;13.426;2023-02-18T17:34:54;2.25;;;1.90;;
30046;SDS011;16878;52.542;13.426;2023-02-18T17:37:20;2.85;;;1.85;;
30046;SDS011;16878;52.542;13.426;2023-02-18T17:39:46;2.50;;;2.00;;